createdAt,value
2019-04-28T00:00:31.835Z,39.30
2019-04-28T00:02:36.925Z,39.30
2019-04-28T00:04:42.015Z,39.29
2019-04-28T00:06:47.100Z,39.29
2019-04-28T00:08:52.147Z,39.28
2019-04-28T00:10:57.167Z,39.28
2019-04-28T00:13:02.227Z,39.27
2019-04-28T00:15:07.387Z,39.26
2019-04-28T00:17:12.420Z,39.24
2019-04-28T00:19:17.724Z,39.25
2019-04-28T00:21:29.306Z,39.25
2019-04-28T00:23:47.246Z,39.27
2019-04-28T00:26:04.306Z,39.27
2019-04-28T00:28:09.344Z,39.28
2019-04-28T00:30:14.587Z,39.28
2019-04-28T00:32:20.969Z,39.30
2019-04-28T00:34:26.149Z,39.28
2019-04-28T00:36:31.469Z,39.28
2019-04-28T00:38:36.576Z,39.27
2019-04-28T00:40:41.603Z,39.28
2019-04-28T00:42:46.724Z,39.28
2019-04-28T00:44:51.908Z,39.28
2019-04-28T00:46:57.129Z,39.28
2019-04-28T00:49:02.283Z,39.28
2019-04-28T00:51:07.421Z,39.31
2019-04-28T00:53:12.544Z,39.31
2019-04-28T00:55:17.603Z,39.31
2019-04-28T00:57:22.739Z,39.30
2019-04-28T00:59:27.792Z,39.30
2019-04-28T01:01:55.030Z,39.30
2019-04-28T01:04:01.969Z,39.31
2019-04-28T01:06:07.096Z,39.31
2019-04-28T01:08:12.228Z,39.31
2019-04-28T01:10:17.243Z,39.29
2019-04-28T01:12:22.296Z,39.29
2019-04-28T01:14:27.324Z,39.30
2019-04-28T01:16:40.058Z,39.29
2019-04-28T01:18:54.052Z,39.29
2019-04-28T01:20:59.643Z,39.31
2019-04-28T01:23:04.959Z,39.31
2019-04-28T01:25:10.677Z,39.30
2019-04-28T01:27:50.630Z,39.31
2019-04-28T01:30:06.195Z,39.32
2019-04-28T01:32:20.446Z,39.31
2019-04-28T01:34:25.985Z,39.35
2019-04-28T01:36:31.323Z,39.34
2019-04-28T01:38:36.363Z,39.36
2019-04-28T01:40:41.446Z,39.38
2019-04-28T01:42:46.482Z,39.38
2019-04-28T01:44:51.900Z,39.37
2019-04-28T01:46:56.931Z,39.37
2019-04-28T01:49:01.962Z,39.37
2019-04-28T01:51:09.530Z,39.37
2019-04-28T01:53:14.866Z,39.40
2019-04-28T01:55:20.078Z,39.38
2019-04-28T01:57:25.176Z,39.37
2019-04-28T01:59:30.436Z,39.36
2019-04-28T02:01:35.517Z,39.38
2019-04-28T02:03:40.767Z,39.39
2019-04-28T02:05:46.776Z,39.39
2019-04-28T02:07:51.795Z,39.41
2019-04-28T02:09:56.850Z,39.39
2019-04-28T02:12:02.963Z,39.40
2019-04-28T02:14:09.636Z,39.40
2019-04-28T02:16:14.713Z,39.40
2019-04-28T02:18:20.051Z,39.42
2019-04-28T02:20:25.224Z,39.44
2019-04-28T02:22:35.431Z,39.46
2019-04-28T02:24:40.629Z,39.45
2019-04-28T02:26:45.743Z,39.45
2019-04-28T02:28:50.816Z,39.43
2019-04-28T02:30:55.884Z,39.45
2019-04-28T02:33:01.839Z,39.46
2019-04-28T02:35:10.423Z,39.45
2019-04-28T02:37:14.599Z,39.47
2019-04-28T02:39:20.661Z,39.47
2019-04-28T02:41:25.938Z,39.48
2019-04-28T02:43:31.027Z,39.48
2019-04-28T02:45:36.367Z,39.49
2019-04-28T02:47:42.266Z,39.49
2019-04-28T02:50:06.415Z,39.50
2019-04-28T02:52:20.639Z,39.51
2019-04-28T02:54:26.148Z,39.52
2019-04-28T02:56:31.615Z,39.52
2019-04-28T02:58:36.670Z,39.54
2019-04-28T03:01:00.442Z,39.54
2019-04-28T03:02:51.102Z,39.54
2019-04-28T03:04:55.233Z,39.55
2019-04-28T03:07:01.308Z,39.53
2019-04-28T03:09:07.252Z,39.56
2019-04-28T03:11:12.379Z,39.55
2019-04-28T03:13:17.439Z,39.57
2019-04-28T03:15:22.543Z,39.57
2019-04-28T03:17:31.080Z,39.56
2019-04-28T03:19:35.494Z,39.57
2019-04-28T03:21:41.632Z,39.59
2019-04-28T03:23:46.852Z,39.59
2019-04-28T03:25:58.255Z,39.60
2019-04-28T03:28:30.759Z,39.58
2019-04-28T03:30:54.361Z,39.61
2019-04-28T03:33:10.837Z,39.61
2019-04-28T03:35:07.268Z,39.66
2019-04-28T03:37:12.300Z,39.70
2019-04-28T03:39:17.354Z,39.71
2019-04-28T03:41:22.390Z,39.70
2019-04-28T03:43:27.420Z,39.69
2019-04-28T03:45:40.764Z,39.68
2019-04-28T03:47:44.751Z,39.68
2019-04-28T03:49:50.471Z,39.69
2019-04-28T03:51:55.959Z,39.66
2019-04-28T03:54:02.955Z,39.68
2019-04-28T03:56:07.802Z,39.68
2019-04-28T03:58:12.928Z,39.67
2019-04-28T04:00:18.056Z,39.69
2019-04-28T04:02:23.870Z,39.69
2019-04-28T04:04:29.063Z,39.68
2019-04-28T04:06:34.176Z,39.68
2019-04-28T04:08:40.764Z,39.69
2019-04-28T04:11:05.129Z,39.68
2019-04-28T04:13:33.895Z,39.68
2019-04-28T04:15:52.706Z,39.69
2019-04-28T04:18:07.026Z,39.70
2019-04-28T04:20:16.751Z,39.68
2019-04-28T04:22:21.882Z,39.70
2019-04-28T04:24:26.924Z,39.70
2019-04-28T04:26:33.525Z,39.72
2019-04-28T04:28:41.379Z,39.70
2019-04-28T04:30:45.713Z,39.70
2019-04-28T04:32:50.833Z,39.72
2019-04-28T04:34:55.928Z,39.70
2019-04-28T04:37:00.988Z,39.70
2019-04-28T04:39:07.439Z,39.71
2019-04-28T04:41:12.481Z,39.71
2019-04-28T04:43:17.552Z,39.70
2019-04-28T04:45:22.590Z,39.72
2019-04-28T04:47:32.435Z,39.73
2019-04-28T04:49:34.402Z,39.74
2019-04-28T04:51:43.364Z,39.74
2019-04-28T04:53:46.231Z,39.73
2019-04-28T04:55:52.740Z,39.73
2019-04-28T04:57:57.825Z,39.74
2019-04-28T05:00:04.539Z,39.77
2019-04-28T05:02:32.205Z,39.75
2019-04-28T05:04:43.619Z,39.78
2019-04-28T05:06:49.688Z,39.77
2019-04-28T05:08:54.771Z,39.81
2019-04-28T05:11:00.086Z,39.81
2019-04-28T05:13:05.236Z,39.86
2019-04-28T05:15:10.507Z,39.83
2019-04-28T05:17:15.693Z,39.87
2019-04-28T05:19:20.732Z,39.86
2019-04-28T05:21:25.747Z,39.84
2019-04-28T05:23:40.015Z,39.86
2019-04-28T05:25:45.105Z,39.85
2019-04-28T05:27:50.143Z,39.86
2019-04-28T05:29:56.748Z,39.88
2019-04-28T05:32:03.618Z,39.85
2019-04-28T05:34:09.956Z,39.88
2019-04-28T05:36:15.551Z,39.86
2019-04-28T05:38:20.580Z,39.88
2019-04-28T05:40:25.614Z,39.91
2019-04-28T05:42:30.638Z,39.91
2019-04-28T05:44:37.619Z,39.89
2019-04-28T05:46:42.471Z,39.92
2019-04-28T05:48:54.825Z,39.90
2019-04-28T05:51:04.233Z,39.92
2019-04-28T05:53:14.756Z,39.91
2019-04-28T05:55:23.806Z,39.92
2019-04-28T05:57:39.734Z,39.92
2019-04-28T05:59:56.209Z,39.96
2019-04-28T06:02:05.117Z,39.96
2019-04-28T06:04:11.250Z,39.97
2019-04-28T06:06:16.403Z,39.97
2019-04-28T06:08:36.590Z,39.98
2019-04-28T06:10:41.615Z,40.00
2019-04-28T06:12:46.662Z,39.99
2019-04-28T06:14:51.680Z,40.00
2019-04-28T06:16:56.721Z,40.02
2019-04-28T06:19:02.093Z,40.02
2019-04-28T06:21:07.133Z,40.03
2019-04-28T06:23:12.147Z,40.03
2019-04-28T06:25:17.189Z,40.02
2019-04-28T06:27:22.354Z,40.04
2019-04-28T06:29:27.416Z,40.03
2019-04-28T06:31:32.551Z,40.07
2019-04-28T06:33:37.586Z,40.06
2019-04-28T06:35:42.604Z,40.06
2019-04-28T06:37:47.992Z,40.08
2019-04-28T06:39:53.057Z,40.11
2019-04-28T06:41:58.096Z,40.12
2019-04-28T06:44:04.498Z,40.12
2019-04-28T06:46:09.581Z,40.12
2019-04-28T06:48:14.615Z,40.11
2019-04-28T06:50:19.646Z,40.15
2019-04-28T06:52:24.680Z,40.16
2019-04-28T06:54:29.710Z,40.16
2019-04-28T06:56:36.224Z,40.17
2019-04-28T06:58:41.289Z,40.17
2019-04-28T07:00:46.345Z,40.16
2019-04-28T07:02:51.723Z,40.21
2019-04-28T07:05:02.315Z,40.23
2019-04-28T07:07:03.538Z,40.25
2019-04-28T07:09:08.649Z,40.25
2019-04-28T07:11:13.631Z,40.24
2019-04-28T07:13:20.651Z,40.27
2019-04-28T07:15:25.432Z,40.28
2019-04-28T07:17:32.302Z,40.29
2019-04-28T07:19:37.337Z,40.29
2019-04-28T07:22:01.296Z,40.32
2019-04-28T07:24:07.413Z,40.32
2019-04-28T07:26:12.447Z,40.34
2019-04-28T07:28:19.038Z,40.35
2019-04-28T07:30:25.223Z,40.36
2019-04-28T07:32:30.259Z,40.38
2019-04-28T07:34:35.299Z,40.41
2019-04-28T07:36:40.341Z,40.41
2019-04-28T07:38:45.357Z,40.42
2019-04-28T07:40:50.397Z,40.42
2019-04-28T07:42:55.419Z,40.43
2019-04-28T07:45:02.255Z,40.43
2019-04-28T07:47:08.621Z,40.44
2019-04-28T07:49:13.663Z,40.44
2019-04-28T07:51:20.591Z,40.45
2019-04-28T07:53:31.295Z,40.46
2019-04-28T07:55:36.363Z,40.48
2019-04-28T07:57:41.409Z,40.50
2019-04-28T07:59:46.471Z,40.52
2019-04-28T08:01:51.553Z,40.52
2019-04-28T08:03:57.623Z,40.51
2019-04-28T08:06:02.795Z,40.54
2019-04-28T08:08:08.792Z,40.53
2019-04-28T08:10:13.837Z,40.55
2019-04-28T08:12:18.856Z,40.55
2019-04-28T08:14:23.901Z,40.56
2019-04-28T08:16:28.919Z,40.57
2019-04-28T08:18:33.965Z,40.57
2019-04-28T08:20:39.008Z,40.57
2019-04-28T08:22:44.399Z,40.59
2019-04-28T08:24:49.436Z,40.60
2019-04-28T08:26:54.601Z,40.63
2019-04-28T08:28:59.647Z,40.64
2019-04-28T08:31:06.267Z,40.66
2019-04-28T08:33:43.698Z,40.66
2019-04-28T08:35:48.841Z,40.67
2019-04-28T08:37:53.876Z,40.67
2019-04-28T08:39:58.891Z,40.71
2019-04-28T08:42:03.968Z,40.73
2019-04-28T08:44:08.988Z,40.78
2019-04-28T08:46:14.036Z,40.77
2019-04-28T08:48:20.851Z,40.77
2019-04-28T08:50:25.888Z,40.76
2019-04-28T08:52:30.929Z,40.77
2019-04-28T08:54:35.951Z,40.79
2019-04-28T08:56:41.005Z,40.81
2019-04-28T08:58:46.060Z,40.79
2019-04-28T09:00:51.116Z,40.82
2019-04-28T09:02:56.180Z,40.83
2019-04-28T09:05:01.244Z,40.83
2019-04-28T09:07:06.365Z,40.87
2019-04-28T09:09:15.033Z,40.89
2019-04-28T09:11:20.058Z,40.87
2019-04-28T09:13:25.128Z,40.89
2019-04-28T09:15:30.163Z,40.91
2019-04-28T09:17:35.229Z,40.93
2019-04-28T09:19:42.408Z,40.94
2019-04-28T09:21:47.042Z,40.97
2019-04-28T09:23:52.085Z,40.97
2019-04-28T09:25:57.386Z,40.99
2019-04-28T09:28:02.416Z,41.00
2019-04-28T09:30:07.499Z,40.99
2019-04-28T09:32:12.538Z,41.02
2019-04-28T09:34:27.795Z,41.03
2019-04-28T09:36:24.301Z,41.03
2019-04-28T09:38:29.342Z,41.05
2019-04-28T09:40:34.395Z,41.05
2019-04-28T09:43:07.543Z,41.05
2019-04-28T09:45:31.515Z,41.10
2019-04-28T09:47:36.565Z,41.11
2019-04-28T09:49:41.587Z,41.11
2019-04-28T09:51:46.623Z,41.14
2019-04-28T09:53:51.732Z,41.14
2019-04-28T09:55:56.755Z,41.15
2019-04-28T09:58:01.775Z,41.18
2019-04-28T10:00:07.431Z,41.19
2019-04-28T10:02:12.570Z,41.21
2019-04-28T10:04:17.765Z,41.21
2019-04-28T10:06:22.798Z,41.23
2019-04-28T10:08:27.844Z,41.22
2019-04-28T10:10:33.014Z,41.26
2019-04-28T10:12:38.078Z,41.23
2019-04-28T10:14:43.101Z,41.27
2019-04-28T10:16:48.157Z,41.27
2019-04-28T10:18:53.175Z,41.30
2019-04-28T10:20:58.275Z,41.28
2019-04-28T10:23:03.377Z,41.31
2019-04-28T10:25:08.642Z,41.29
2019-04-28T10:27:13.759Z,41.31
2019-04-28T10:29:18.780Z,41.33
2019-04-28T10:31:23.938Z,41.33
2019-04-28T10:33:28.961Z,41.35
2019-04-28T10:35:34.009Z,41.39
2019-04-28T10:37:39.059Z,41.38
2019-04-28T10:39:55.745Z,41.39
2019-04-28T10:42:00.805Z,41.41
2019-04-28T10:44:08.547Z,41.40
2019-04-28T10:46:12.702Z,41.46
2019-04-28T10:48:17.733Z,41.46
2019-04-28T10:50:22.788Z,41.45
2019-04-28T10:52:27.878Z,41.45
2019-04-28T10:54:32.990Z,41.45
2019-04-28T10:56:38.116Z,41.45
2019-04-28T10:58:45.101Z,41.47
2019-04-28T11:00:50.152Z,41.49
2019-04-28T11:02:55.201Z,41.50
2019-04-28T11:05:08.719Z,41.49
2019-04-28T11:07:14.295Z,41.51
2019-04-28T11:09:31.383Z,41.53
2019-04-28T11:11:36.509Z,41.53
2019-04-28T11:13:41.618Z,41.55
2019-04-28T11:15:46.678Z,41.56
2019-04-28T11:17:51.738Z,41.57
2019-04-28T11:19:56.800Z,41.57
2019-04-28T11:22:01.850Z,41.57
2019-04-28T11:24:08.138Z,41.57
2019-04-28T11:26:13.195Z,41.59
2019-04-28T11:28:18.296Z,41.58
2019-04-28T11:30:24.353Z,41.62
2019-04-28T11:32:29.441Z,41.63
2019-04-28T11:34:44.974Z,41.62
2019-04-28T11:36:49.996Z,41.61
2019-04-28T11:38:55.047Z,41.61
2019-04-28T11:41:00.074Z,41.64
2019-04-28T11:43:05.117Z,41.64
2019-04-28T11:45:10.204Z,41.67
2019-04-28T11:47:17.661Z,41.65
2019-04-28T11:49:22.700Z,41.67
2019-04-28T11:51:27.877Z,41.66
2019-04-28T11:53:35.128Z,41.69
2019-04-28T11:55:40.163Z,41.67
2019-04-28T11:57:45.208Z,41.71
2019-04-28T11:59:50.231Z,41.72
2019-04-28T12:01:55.476Z,41.73
2019-04-28T12:04:02.669Z,41.73
2019-04-28T12:06:07.732Z,41.70
2019-04-28T12:08:12.821Z,41.75
2019-04-28T12:10:22.096Z,41.75
2019-04-28T12:12:48.657Z,41.78
2019-04-28T12:15:00.801Z,41.77
2019-04-28T12:17:23.488Z,41.76
2019-04-28T12:19:34.982Z,41.81
2019-04-28T12:21:40.042Z,41.82
2019-04-28T12:23:45.084Z,41.85
2019-04-28T12:25:50.152Z,41.87
2019-04-28T12:27:55.212Z,41.89
2019-04-28T12:30:00.653Z,41.89
2019-04-28T12:32:05.721Z,41.89
2019-04-28T12:34:10.745Z,41.88
2019-04-28T12:36:15.784Z,41.87
2019-04-28T12:38:20.830Z,41.89
2019-04-28T12:40:25.888Z,41.88
2019-04-28T12:42:31.029Z,41.91
2019-04-28T12:44:37.049Z,41.91
2019-04-28T12:46:42.131Z,41.90
2019-04-28T12:48:48.187Z,41.93
2019-04-28T12:50:53.315Z,41.92
2019-04-28T12:52:58.327Z,41.92
2019-04-28T12:55:04.347Z,41.92
2019-04-28T12:57:09.402Z,41.93
2019-04-28T12:59:19.850Z,41.94
2019-04-28T13:01:43.841Z,41.95
2019-04-28T13:04:07.482Z,41.93
2019-04-28T13:06:14.867Z,41.95
2019-04-28T13:08:20.908Z,41.94
2019-04-28T13:10:25.959Z,41.96
2019-04-28T13:12:30.973Z,41.97
2019-04-28T13:14:36.111Z,41.97
2019-04-28T13:16:41.129Z,41.96
2019-04-28T13:18:46.191Z,41.95
2019-04-28T13:20:51.425Z,41.96
2019-04-28T13:22:56.466Z,41.97
2019-04-28T13:25:02.612Z,41.96
2019-04-28T13:27:10.360Z,41.99
2019-04-28T13:29:15.417Z,41.99
2019-04-28T13:31:20.534Z,41.99
2019-04-28T13:33:25.611Z,42.01
2019-04-28T13:35:30.706Z,42.01
2019-04-28T13:37:36.057Z,42.01
2019-04-28T13:39:46.957Z,41.99
2019-04-28T13:41:51.976Z,41.99
2019-04-28T13:43:57.017Z,42.00
2019-04-28T13:46:02.040Z,42.00
2019-04-28T13:48:07.145Z,42.00
2019-04-28T13:50:31.421Z,42.00
2019-04-28T13:52:37.532Z,41.99
2019-04-28T13:54:42.555Z,41.99
2019-04-28T13:56:47.625Z,41.99
2019-04-28T13:59:07.749Z,41.99
2019-04-28T14:01:31.724Z,42.01
2019-04-28T14:03:58.751Z,42.01
2019-04-28T14:06:07.150Z,42.04
2019-04-28T14:08:12.168Z,42.04
2019-04-28T14:10:17.200Z,42.06
2019-04-28T14:12:22.221Z,42.06
2019-04-28T14:14:27.265Z,42.07
2019-04-28T14:16:32.288Z,42.07
2019-04-28T14:18:37.327Z,42.08
2019-04-28T14:20:42.474Z,42.06
2019-04-28T14:22:47.470Z,42.06
2019-04-28T14:24:52.551Z,42.06
2019-04-28T14:26:57.623Z,42.07
2019-04-28T14:29:02.636Z,42.06
2019-04-28T14:31:07.668Z,42.05
2019-04-28T14:33:12.762Z,42.07
2019-04-28T14:35:17.771Z,42.08
2019-04-28T14:37:22.910Z,42.09
2019-04-28T14:39:28.034Z,42.09
2019-04-28T14:41:33.085Z,42.10
2019-04-28T14:43:38.409Z,42.10
2019-04-28T14:45:43.518Z,42.10
2019-04-28T14:47:49.620Z,42.11
2019-04-28T14:49:54.676Z,42.12
2019-04-28T14:52:00.752Z,42.11
2019-04-28T14:54:05.851Z,42.12
2019-04-28T14:56:10.947Z,42.13
2019-04-28T14:58:16.086Z,42.13
2019-04-28T15:00:25.644Z,42.14
2019-04-28T15:02:38.720Z,42.16
2019-04-28T15:05:01.567Z,42.15
2019-04-28T15:07:12.236Z,42.16
2019-04-28T15:09:42.353Z,42.14
2019-04-28T15:11:57.222Z,42.20
2019-04-28T15:14:02.316Z,42.20
2019-04-28T15:16:07.385Z,42.23
2019-04-28T15:18:12.458Z,42.24
2019-04-28T15:20:17.506Z,42.21
2019-04-28T15:22:22.615Z,42.23
2019-04-28T15:24:27.667Z,42.22
2019-04-28T15:26:33.822Z,42.23
2019-04-28T15:28:38.908Z,42.22
2019-04-28T15:30:43.961Z,42.23
2019-04-28T15:32:48.979Z,42.21
2019-04-28T15:34:54.026Z,42.23
2019-04-28T15:37:09.495Z,42.23
2019-04-28T15:39:09.222Z,42.24
2019-04-28T15:41:21.340Z,42.23
2019-04-28T15:43:21.202Z,42.23
2019-04-28T15:45:26.251Z,42.25
2019-04-28T15:47:31.356Z,42.25
2019-04-28T15:49:36.372Z,42.24
2019-04-28T15:51:41.413Z,42.24
2019-04-28T15:53:49.082Z,42.23
2019-04-28T15:56:08.512Z,42.23
2019-04-28T15:58:36.730Z,42.23
2019-04-28T16:00:41.883Z,42.22
2019-04-28T16:02:46.973Z,42.22
2019-04-28T16:04:53.102Z,42.26
2019-04-28T16:06:58.200Z,42.26
2019-04-28T16:09:05.000Z,42.26
2019-04-28T16:11:10.632Z,42.26
2019-04-28T16:13:15.767Z,42.26
2019-04-28T16:15:20.798Z,42.26
2019-04-28T16:17:25.832Z,42.25
2019-04-28T16:19:30.843Z,42.26
2019-04-28T16:21:36.251Z,42.23
2019-04-28T16:23:41.271Z,42.23
2019-04-28T16:25:46.310Z,42.22
2019-04-28T16:27:51.349Z,42.24
2019-04-28T16:29:56.388Z,42.24
2019-04-28T16:32:01.439Z,42.24
2019-04-28T16:34:06.542Z,42.23
2019-04-28T16:36:11.584Z,42.23
2019-04-28T16:38:16.651Z,42.23
2019-04-28T16:40:22.960Z,42.22
2019-04-28T16:42:30.652Z,42.21
2019-04-28T16:44:44.757Z,42.21
2019-04-28T16:46:49.772Z,42.21
2019-04-28T16:48:54.810Z,42.22
2019-04-28T16:50:59.827Z,42.21
2019-04-28T16:53:04.866Z,42.21
2019-04-28T16:55:20.266Z,42.20
2019-04-28T16:57:33.558Z,42.20
2019-04-28T17:00:01.458Z,42.19
2019-04-28T17:02:13.008Z,42.22
2019-04-28T17:04:18.119Z,42.21
2019-04-28T17:06:23.194Z,42.23
2019-04-28T17:08:29.426Z,42.23
2019-04-28T17:10:34.835Z,42.21
2019-04-28T17:12:39.903Z,42.23
2019-04-28T17:14:45.011Z,42.21
2019-04-28T17:16:50.024Z,42.21
2019-04-28T17:18:55.063Z,42.21
2019-04-28T17:21:00.110Z,42.20
2019-04-28T17:23:05.162Z,42.21
2019-04-28T17:25:10.329Z,42.22
2019-04-28T17:27:15.438Z,42.19
2019-04-28T17:29:20.570Z,42.21
2019-04-28T17:31:25.734Z,42.20
2019-04-28T17:33:30.792Z,42.20
2019-04-28T17:35:35.931Z,42.20
2019-04-28T17:37:40.988Z,42.19
2019-04-28T17:39:46.252Z,42.22
2019-04-28T17:41:51.472Z,42.19
2019-04-28T17:43:56.513Z,42.21
2019-04-28T17:46:01.877Z,42.21
2019-04-28T17:48:27.690Z,42.20
2019-04-28T17:50:33.154Z,42.21
2019-04-28T17:52:38.191Z,42.20
2019-04-28T17:54:43.218Z,42.23
2019-04-28T17:56:48.335Z,42.24
2019-04-28T17:58:53.432Z,42.23
2019-04-28T18:01:18.457Z,42.23
2019-04-28T18:03:30.764Z,42.24
2019-04-28T18:05:42.968Z,42.22
2019-04-28T18:07:49.840Z,42.24
2019-04-28T18:09:54.977Z,42.23
2019-04-28T18:12:00.019Z,42.23
2019-04-28T18:14:05.064Z,42.24
2019-04-28T18:16:32.257Z,42.24
2019-04-28T18:18:43.349Z,42.23
2019-04-28T18:20:48.396Z,42.22
2019-04-28T18:22:53.484Z,42.21
2019-04-28T18:24:58.590Z,42.23
2019-04-28T18:27:03.624Z,42.23
2019-04-28T18:29:08.646Z,42.21
2019-04-28T18:31:51.029Z,42.23
2019-04-28T18:34:13.735Z,42.22
2019-04-28T18:36:25.528Z,42.23
2019-04-28T18:38:49.566Z,42.26
2019-04-28T18:41:03.415Z,42.31
2019-04-28T18:43:33.315Z,42.29
2019-04-28T18:45:38.340Z,42.30
2019-04-28T18:47:43.396Z,42.29
2019-04-28T18:49:48.436Z,42.28
2019-04-28T18:51:53.599Z,42.28
2019-04-28T18:53:58.639Z,42.30
2019-04-28T18:56:03.681Z,42.26
2019-04-28T18:58:09.175Z,42.26
2019-04-28T19:00:14.316Z,42.26
2019-04-28T19:02:38.393Z,42.27
2019-04-28T19:04:43.407Z,42.25
2019-04-28T19:06:48.463Z,42.23
2019-04-28T19:09:01.379Z,42.24
2019-04-28T19:11:29.093Z,42.24
2019-04-28T19:13:37.262Z,42.24
2019-04-28T19:16:10.642Z,42.23
2019-04-28T19:18:21.889Z,42.27
2019-04-28T19:20:26.951Z,42.26
2019-04-28T19:22:35.506Z,42.28
2019-04-28T19:24:40.650Z,42.26
2019-04-28T19:26:45.732Z,42.26
2019-04-28T19:28:50.792Z,42.24
2019-04-28T19:30:55.922Z,42.23
2019-04-28T19:33:01.437Z,42.27
2019-04-28T19:35:07.567Z,42.26
2019-04-28T19:37:12.779Z,42.25
2019-04-28T19:39:17.888Z,42.25
2019-04-28T19:41:24.581Z,42.24
2019-04-28T19:43:29.615Z,42.24
2019-04-28T19:45:36.641Z,42.23
2019-04-28T19:47:41.740Z,42.23
2019-04-28T19:49:46.883Z,42.23
2019-04-28T19:51:53.225Z,42.24
2019-04-28T19:53:58.870Z,42.24
2019-04-28T19:56:12.397Z,42.26
2019-04-28T19:58:23.876Z,42.25
2019-04-28T20:00:42.407Z,42.28
2019-04-28T20:02:49.051Z,42.25
2019-04-28T20:04:54.307Z,42.29
2019-04-28T20:06:59.327Z,42.27
2019-04-28T20:09:05.928Z,42.28
2019-04-28T20:11:12.610Z,42.26
2019-04-28T20:13:17.757Z,42.29
2019-04-28T20:15:22.817Z,42.28
2019-04-28T20:17:27.985Z,42.26
2019-04-28T20:19:33.557Z,42.27
2019-04-28T20:21:38.691Z,42.28
2019-04-28T20:23:43.823Z,42.28
2019-04-28T20:25:49.180Z,42.28
2019-04-28T20:27:54.315Z,42.28
2019-04-28T20:29:59.420Z,42.28
2019-04-28T20:32:04.451Z,42.27
2019-04-28T20:34:09.664Z,42.27
2019-04-28T20:36:42.713Z,42.26
2019-04-28T20:38:49.585Z,42.28
2019-04-28T20:41:01.477Z,42.27
2019-04-28T20:43:12.576Z,42.29
2019-04-28T20:45:17.613Z,42.30
2019-04-28T20:47:23.710Z,42.33
2019-04-28T20:49:28.824Z,42.30
2019-04-28T20:51:33.860Z,42.33
2019-04-28T20:53:38.877Z,42.33
2019-04-28T20:55:43.915Z,42.30
2019-04-28T20:57:48.947Z,42.33
2019-04-28T20:59:54.004Z,42.30
2019-04-28T21:01:59.035Z,42.33
2019-04-28T21:04:04.343Z,42.30
2019-04-28T21:06:09.480Z,42.30
2019-04-28T21:08:14.570Z,42.33
2019-04-28T21:10:19.608Z,42.33
2019-04-28T21:12:25.000Z,42.33
2019-04-28T21:14:30.043Z,42.31
2019-04-28T21:16:35.051Z,42.30
2019-04-28T21:18:40.091Z,42.30
2019-04-28T21:20:45.208Z,42.35
2019-04-28T21:22:50.264Z,42.35
2019-04-28T21:24:55.398Z,42.34
2019-04-28T21:27:01.441Z,42.34
2019-04-28T21:29:06.667Z,42.35
2019-04-28T21:31:11.684Z,42.36
2019-04-28T21:33:16.796Z,42.33
2019-04-28T21:35:21.810Z,42.35
2019-04-28T21:37:26.857Z,42.35
2019-04-28T21:39:31.876Z,42.36
2019-04-28T21:41:36.946Z,42.36
2019-04-28T21:43:57.070Z,42.36
2019-04-28T21:46:23.965Z,42.36
2019-04-28T21:48:50.727Z,42.38
2019-04-28T21:50:55.840Z,42.37
2019-04-28T21:53:01.969Z,42.40
2019-04-28T21:55:08.920Z,42.39
2019-04-28T21:57:13.983Z,42.40
2019-04-28T21:59:19.112Z,42.40
2019-04-28T22:01:24.313Z,42.40
2019-04-28T22:03:29.663Z,42.39
2019-04-28T22:05:34.702Z,42.39
2019-04-28T22:07:39.739Z,42.42
2019-04-28T22:09:44.799Z,42.41
2019-04-28T22:11:51.455Z,42.40
2019-04-28T22:13:56.478Z,42.42
2019-04-28T22:16:01.514Z,42.42
2019-04-28T22:18:06.603Z,42.43
2019-04-28T22:20:11.739Z,42.43
2019-04-28T22:22:16.786Z,42.44
2019-04-28T22:24:33.082Z,42.44
2019-04-28T22:27:03.139Z,42.45
2019-04-28T22:29:08.187Z,42.44
2019-04-28T22:31:13.272Z,42.46
2019-04-28T22:33:18.332Z,42.48
2019-04-28T22:35:23.788Z,42.48
2019-04-28T22:37:28.912Z,42.48
2019-04-28T22:39:33.971Z,42.48
2019-04-28T22:41:40.629Z,42.48
2019-04-28T22:43:45.663Z,42.46
2019-04-28T22:45:50.689Z,42.47
2019-04-28T22:47:55.718Z,42.51
2019-04-28T22:50:00.739Z,42.50
2019-04-28T22:52:07.247Z,42.51
2019-04-28T22:54:18.008Z,42.51
2019-04-28T22:56:38.366Z,42.52
2019-04-28T22:58:56.537Z,42.51
2019-04-28T23:01:20.513Z,42.50
2019-04-28T23:03:47.492Z,42.53
2019-04-28T23:05:52.899Z,42.55
2019-04-28T23:07:57.920Z,42.54
2019-04-28T23:10:03.006Z,42.55
2019-04-28T23:12:10.405Z,42.57
2019-04-28T23:14:15.523Z,42.55
2019-04-28T23:16:20.567Z,42.55
2019-04-28T23:18:26.806Z,42.57
2019-04-28T23:20:34.145Z,42.57
2019-04-28T23:22:47.425Z,42.54
2019-04-28T23:24:53.607Z,42.56
2019-04-28T23:26:58.628Z,42.56
2019-04-28T23:29:03.673Z,42.56
2019-04-28T23:31:08.690Z,42.55
2019-04-28T23:33:14.153Z,42.56
2019-04-28T23:35:19.175Z,42.56
2019-04-28T23:37:24.211Z,42.57
2019-04-28T23:39:29.280Z,42.58
2019-04-28T23:41:42.421Z,42.56
2019-04-28T23:43:47.466Z,42.56
2019-04-28T23:45:52.529Z,42.56
2019-04-28T23:47:57.631Z,42.56
2019-04-28T23:50:02.679Z,42.56
2019-04-28T23:52:26.632Z,42.56
2019-04-28T23:54:31.691Z,42.55
2019-04-28T23:56:36.768Z,42.57
2019-04-28T23:58:41.808Z,42.58
